createdAt,value
2023-04-14T00:00:47.644Z,1.20
2023-04-14T00:03:16.879Z,2.47
2023-04-14T00:05:44.640Z,0.90
2023-04-14T00:08:12.573Z,0.80
2023-04-14T00:10:40.193Z,1.53
2023-04-14T00:13:07.936Z,1.07
2023-04-14T00:15:37.060Z,1.03
2023-04-14T00:18:04.917Z,1.23
2023-04-14T00:20:32.559Z,1.80
2023-04-14T00:23:00.545Z,0.90
2023-04-14T00:25:28.097Z,1.40
2023-04-14T00:27:55.788Z,1.27
2023-04-14T00:30:23.541Z,1.20
2023-04-14T00:32:52.552Z,1.10
2023-04-14T00:35:20.775Z,1.07
2023-04-14T00:37:48.366Z,1.90
2023-04-14T00:40:16.399Z,1.40
2023-04-14T00:42:44.976Z,1.13
2023-04-14T00:45:13.669Z,1.00
2023-04-14T00:47:46.859Z,1.37
2023-04-14T00:50:17.890Z,1.47
2023-04-14T00:52:48.038Z,2.03
2023-04-14T00:55:18.909Z,2.23
2023-04-14T00:57:47.259Z,2.00
2023-04-14T01:00:15.726Z,3.37
2023-04-14T01:02:44.365Z,2.73
2023-04-14T01:05:12.775Z,2.00
2023-04-14T01:07:42.289Z,3.00
2023-04-14T01:10:11.271Z,2.60
2023-04-14T01:12:56.129Z,3.00
2023-04-14T01:15:31.258Z,2.80
2023-04-14T01:18:06.356Z,2.57
2023-04-14T01:20:41.738Z,3.40
2023-04-14T01:23:14.116Z,3.27
2023-04-14T01:26:06.284Z,3.87
2023-04-14T01:29:00.480Z,2.63
2023-04-14T01:31:35.430Z,3.27
2023-04-14T01:34:11.905Z,2.93
2023-04-14T01:36:43.095Z,3.23
2023-04-14T01:39:17.014Z,4.40
2023-04-14T01:41:49.107Z,4.30
2023-04-14T01:44:19.993Z,3.33
2023-04-14T01:46:51.262Z,4.40
2023-04-14T01:49:20.454Z,4.27
2023-04-14T01:51:49.953Z,4.03
2023-04-14T01:54:21.028Z,4.30
2023-04-14T01:56:52.065Z,3.73
2023-04-14T01:59:22.031Z,4.10
2023-04-14T02:01:52.337Z,3.43
2023-04-14T02:04:23.840Z,4.07
2023-04-14T02:06:52.750Z,4.03
2023-04-14T02:09:23.005Z,3.50
2023-04-14T02:11:52.572Z,3.40
2023-04-14T02:14:21.687Z,3.13
2023-04-14T02:16:53.687Z,2.90
2023-04-14T02:19:23.864Z,2.90
2023-04-14T02:21:53.330Z,3.40
2023-04-14T02:24:21.595Z,3.57
2023-04-14T02:26:55.949Z,3.23
2023-04-14T02:29:26.138Z,3.70
2023-04-14T02:32:00.932Z,3.00
2023-04-14T02:34:31.380Z,3.47
2023-04-14T02:37:03.810Z,3.90
2023-04-14T02:39:38.350Z,2.83
2023-04-14T02:42:13.787Z,3.30
2023-04-14T02:44:49.909Z,4.27
2023-04-14T02:47:25.014Z,3.37
2023-04-14T02:49:54.366Z,4.17
2023-04-14T02:52:25.628Z,3.70
2023-04-14T02:54:56.948Z,3.73
2023-04-14T02:57:26.668Z,3.67
2023-04-14T02:59:57.409Z,4.40
2023-04-14T03:02:28.699Z,4.20
2023-04-14T03:05:05.418Z,3.40
2023-04-14T03:07:45.694Z,3.00
2023-04-14T03:10:16.645Z,3.90
2023-04-14T03:12:46.324Z,3.53
2023-04-14T03:15:13.950Z,4.17
2023-04-14T03:17:44.601Z,2.87
2023-04-14T03:20:14.375Z,4.13
2023-04-14T03:22:44.093Z,3.77
2023-04-14T03:25:15.874Z,3.90
2023-04-14T03:27:47.957Z,3.50
2023-04-14T03:30:17.552Z,3.67
2023-04-14T03:32:50.613Z,3.97
2023-04-14T03:35:21.899Z,4.33
2023-04-14T03:37:51.694Z,5.13
2023-04-14T03:40:19.768Z,5.07
2023-04-14T03:42:50.733Z,5.30
2023-04-14T03:45:21.838Z,3.97
2023-04-14T03:47:53.415Z,4.10
2023-04-14T03:50:24.043Z,4.83
2023-04-14T03:52:55.053Z,4.80
2023-04-14T03:55:24.642Z,7.30
2023-04-14T03:57:53.079Z,4.70
2023-04-14T04:00:21.538Z,4.47
2023-04-14T04:02:51.557Z,5.23
2023-04-14T04:05:19.825Z,4.97
2023-04-14T04:07:49.006Z,6.67
2023-04-14T04:10:17.693Z,5.53
2023-04-14T04:12:48.730Z,4.77
2023-04-14T04:15:17.374Z,4.40
2023-04-14T04:17:46.399Z,4.60
2023-04-14T04:20:17.050Z,4.93
2023-04-14T04:22:51.461Z,4.53
2023-04-14T04:25:19.561Z,5.03
2023-04-14T04:27:55.996Z,4.63
2023-04-14T04:30:25.329Z,5.00
2023-04-14T04:32:53.059Z,4.73
2023-04-14T04:35:24.784Z,6.03
2023-04-14T04:37:53.458Z,3.93
2023-04-14T04:40:21.243Z,4.13
2023-04-14T04:42:51.286Z,4.10
2023-04-14T04:45:40.008Z,4.87
2023-04-14T04:48:08.404Z,3.77
2023-04-14T04:50:37.513Z,4.43
2023-04-14T04:53:05.334Z,4.57
2023-04-14T04:55:33.014Z,3.60
2023-04-14T04:58:00.959Z,4.20
2023-04-14T05:00:28.535Z,3.33
2023-04-14T05:02:56.686Z,4.07
2023-04-14T05:05:24.411Z,3.00
2023-04-14T05:07:53.463Z,3.60
2023-04-14T05:10:20.994Z,4.07
2023-04-14T05:12:48.695Z,4.37
2023-04-14T05:15:16.599Z,3.13
2023-04-14T05:17:44.599Z,3.97
2023-04-14T05:20:13.349Z,2.90
2023-04-14T05:22:40.921Z,4.30
2023-04-14T05:25:10.522Z,3.33
2023-04-14T05:27:38.274Z,3.57
2023-04-14T05:30:06.986Z,3.33
2023-04-14T05:32:34.735Z,3.30
2023-04-14T05:35:02.400Z,3.47
2023-04-14T05:37:30.982Z,3.77
2023-04-14T05:39:58.634Z,3.40
2023-04-14T05:42:27.810Z,3.20
2023-04-14T05:44:55.332Z,4.00
2023-04-14T05:47:23.049Z,3.33
2023-04-14T05:49:50.604Z,2.73
2023-04-14T05:52:18.195Z,2.37
2023-04-14T05:54:45.794Z,3.77
2023-04-14T05:57:13.583Z,2.33
2023-04-14T05:59:42.546Z,2.70
2023-04-14T06:02:10.291Z,2.50
2023-04-14T06:04:38.092Z,2.37
2023-04-14T06:07:06.067Z,1.80
2023-04-14T06:09:33.622Z,2.03
2023-04-14T06:12:01.429Z,3.53
2023-04-14T06:14:28.985Z,2.67
2023-04-14T06:16:58.276Z,2.67
2023-04-14T06:19:25.854Z,3.30
2023-04-14T06:21:53.407Z,2.27
2023-04-14T06:24:21.224Z,4.10
2023-04-14T06:26:48.783Z,4.33
2023-04-14T06:29:16.364Z,3.30
2023-04-14T06:31:44.045Z,2.40
2023-04-14T06:34:13.217Z,2.27
2023-04-14T06:36:41.127Z,4.30
2023-04-14T06:39:08.842Z,3.40
2023-04-14T06:41:36.434Z,3.03
2023-04-14T06:44:05.568Z,3.13
2023-04-14T06:46:35.913Z,3.43
2023-04-14T06:49:03.896Z,2.73
2023-04-14T06:51:34.081Z,2.50
2023-04-14T06:54:02.036Z,2.37
2023-04-14T06:56:29.847Z,3.13
2023-04-14T06:58:57.707Z,2.33
2023-04-14T07:01:25.452Z,3.17
2023-04-14T07:03:53.128Z,3.13
2023-04-14T07:06:20.813Z,2.00
2023-04-14T07:08:49.705Z,2.93
2023-04-14T07:11:17.387Z,2.67
2023-04-14T07:13:45.075Z,2.40
2023-04-14T07:16:12.935Z,2.10
2023-04-14T07:18:40.665Z,2.60
2023-04-14T07:21:08.233Z,2.37
2023-04-14T07:23:35.939Z,3.03
2023-04-14T07:26:05.112Z,1.53
2023-04-14T07:28:32.899Z,2.90
2023-04-14T07:31:01.150Z,2.80
2023-04-14T07:33:31.102Z,2.87
2023-04-14T07:36:03.487Z,2.13
2023-04-14T07:38:32.345Z,3.20
2023-04-14T07:41:00.202Z,3.67
2023-04-14T07:43:34.701Z,2.07
2023-04-14T07:46:09.713Z,2.43
2023-04-14T07:48:38.903Z,2.47
2023-04-14T07:51:06.933Z,2.43
2023-04-14T07:53:35.012Z,2.53
2023-04-14T07:56:02.678Z,2.60
2023-04-14T07:58:31.623Z,3.07
2023-04-14T08:00:59.537Z,2.27
2023-04-14T08:03:27.391Z,2.57
2023-04-14T08:05:55.481Z,2.80
2023-04-14T08:08:23.141Z,2.00
2023-04-14T08:10:51.090Z,3.40
2023-04-14T08:13:18.685Z,3.37
2023-04-14T08:15:47.871Z,4.60
2023-04-14T08:18:15.495Z,3.17
2023-04-14T08:20:43.125Z,2.10
2023-04-14T08:23:11.562Z,2.80
2023-04-14T08:25:39.526Z,2.20
2023-04-14T08:28:07.084Z,2.97
2023-04-14T08:30:34.926Z,2.63
2023-04-14T08:33:03.972Z,2.10
2023-04-14T08:35:40.051Z,4.27
2023-04-14T08:38:09.624Z,2.10
2023-04-14T08:40:39.295Z,3.43
2023-04-14T08:43:07.018Z,2.47
2023-04-14T08:45:35.660Z,1.87
2023-04-14T08:48:05.865Z,1.80
2023-04-14T08:50:37.664Z,3.50
2023-04-14T08:53:09.427Z,2.33
2023-04-14T08:55:40.318Z,2.47
2023-04-14T08:58:10.433Z,3.10
2023-04-14T09:00:38.886Z,2.53
2023-04-14T09:03:08.961Z,2.57
2023-04-14T09:05:37.413Z,3.57
2023-04-14T09:08:05.234Z,2.67
2023-04-14T09:10:33.286Z,2.23
2023-04-14T09:13:01.378Z,2.60
2023-04-14T09:15:29.374Z,2.43
2023-04-14T09:17:57.398Z,1.60
2023-04-14T09:20:38.990Z,1.93
2023-04-14T09:23:10.457Z,1.43
2023-04-14T09:25:39.583Z,2.10
2023-04-14T09:28:07.364Z,2.40
2023-04-14T09:30:35.628Z,1.97
2023-04-14T09:33:05.919Z,2.57
2023-04-14T09:35:47.309Z,2.17
2023-04-14T09:38:15.037Z,2.07
2023-04-14T09:40:44.104Z,2.00
2023-04-14T09:43:25.178Z,2.27
2023-04-14T09:45:53.121Z,2.13
2023-04-14T09:48:21.570Z,1.90
2023-04-14T09:51:01.585Z,1.27
2023-04-14T09:53:31.283Z,2.20
2023-04-14T09:56:02.436Z,5.77
2023-04-14T09:58:32.606Z,2.50
2023-04-14T10:01:00.555Z,1.47
2023-04-14T10:03:34.876Z,2.43
2023-04-14T10:06:05.664Z,1.87
2023-04-14T10:08:38.069Z,1.93
2023-04-14T10:11:17.223Z,1.50
2023-04-14T10:13:45.536Z,1.20
2023-04-14T10:16:13.592Z,2.07
2023-04-14T10:18:41.280Z,2.60
2023-04-14T10:21:11.485Z,1.63
2023-04-14T10:23:41.184Z,2.17
2023-04-14T10:26:10.462Z,1.70
2023-04-14T10:28:40.789Z,2.17
2023-04-14T10:31:13.202Z,1.67
2023-04-14T10:33:42.097Z,2.10
2023-04-14T10:36:11.537Z,2.60
2023-04-14T10:38:42.172Z,1.63
2023-04-14T10:41:10.285Z,1.53
2023-04-14T10:43:38.593Z,2.37
2023-04-14T10:46:09.782Z,3.23
2023-04-14T10:48:38.842Z,1.60
2023-04-14T10:51:09.022Z,2.90
2023-04-14T10:53:45.860Z,2.43
2023-04-14T10:56:14.309Z,1.40
2023-04-14T10:58:41.919Z,2.77
2023-04-14T11:01:32.318Z,1.53
2023-04-14T11:04:17.336Z,1.63
2023-04-14T11:06:53.498Z,2.40
2023-04-14T11:09:34.361Z,1.43
2023-04-14T11:12:24.131Z,1.67
2023-04-14T11:14:56.247Z,1.77
2023-04-14T11:17:24.504Z,1.80
2023-04-14T11:19:55.141Z,1.30
2023-04-14T11:22:38.913Z,1.20
2023-04-14T11:25:09.633Z,1.10
2023-04-14T11:27:39.388Z,1.50
2023-04-14T11:30:09.176Z,1.40
2023-04-14T11:32:51.193Z,2.43
2023-04-14T11:35:19.844Z,1.53
2023-04-14T11:37:47.809Z,1.60
2023-04-14T11:40:17.032Z,1.20
2023-04-14T11:42:46.783Z,2.60
2023-04-14T11:45:16.320Z,6.00
2023-04-14T11:47:48.987Z,1.23
2023-04-14T11:50:17.910Z,1.33
2023-04-14T11:52:51.094Z,1.20
2023-04-14T11:55:20.277Z,0.60
2023-04-14T11:57:48.948Z,1.13
2023-04-14T12:00:17.323Z,1.20
2023-04-14T12:02:45.597Z,3.53
2023-04-14T12:05:14.472Z,1.07
2023-04-14T12:07:44.482Z,1.30
2023-04-14T12:10:13.357Z,1.27
2023-04-14T12:12:42.707Z,0.87
2023-04-14T12:15:11.432Z,0.90
2023-04-14T12:17:39.243Z,1.07
2023-04-14T12:20:14.266Z,1.00
2023-04-14T12:22:42.117Z,1.00
2023-04-14T12:25:12.081Z,1.20
2023-04-14T12:27:39.968Z,1.03
2023-04-14T12:30:10.605Z,2.37
2023-04-14T12:32:42.079Z,1.23
2023-04-14T12:35:10.249Z,0.93
2023-04-14T12:37:38.784Z,1.17
2023-04-14T12:40:07.895Z,1.00
2023-04-14T12:42:47.305Z,0.63
2023-04-14T12:45:17.081Z,2.27
2023-04-14T12:47:54.120Z,1.03
2023-04-14T12:50:27.930Z,1.47
2023-04-14T12:52:56.052Z,0.50
2023-04-14T12:55:25.211Z,0.67
2023-04-14T12:57:54.325Z,0.60
2023-04-14T13:00:24.364Z,0.47
2023-04-14T13:02:52.202Z,0.63
2023-04-14T13:05:20.587Z,0.37
2023-04-14T13:07:48.303Z,0.57
2023-04-14T13:10:16.057Z,0.60
2023-04-14T13:12:44.052Z,0.93
2023-04-14T13:16:09.025Z,0.83
2023-04-14T13:18:01.233Z,0.60
2023-04-14T13:20:30.361Z,1.13
2023-04-14T13:22:57.937Z,1.10
2023-04-14T13:25:25.574Z,0.47
2023-04-14T13:27:53.121Z,1.67
2023-04-14T13:30:21.234Z,1.17
2023-04-14T13:32:48.849Z,1.03
2023-04-14T13:35:17.789Z,1.30
2023-04-14T13:37:45.399Z,0.60
2023-04-14T13:40:13.458Z,0.97
2023-04-14T13:42:41.020Z,1.17
2023-04-14T13:45:10.128Z,0.97
2023-04-14T13:47:37.752Z,0.63
2023-04-14T13:50:05.860Z,1.03
2023-04-14T13:52:35.703Z,0.80
2023-04-14T13:55:03.394Z,0.63
2023-04-14T13:57:31.413Z,1.27
2023-04-14T13:59:59.026Z,0.70
2023-04-14T14:02:26.812Z,1.90
2023-04-14T14:04:54.848Z,0.37
2023-04-14T14:07:22.430Z,0.23
2023-04-14T14:09:51.345Z,0.43
2023-04-14T14:12:19.050Z,0.40
2023-04-14T14:14:47.086Z,0.80
2023-04-14T14:17:14.681Z,1.70
2023-04-14T14:19:43.398Z,1.10
2023-04-14T14:22:11.065Z,6.07
2023-04-14T14:24:41.273Z,4.20
2023-04-14T14:27:10.301Z,2.83
2023-04-14T14:29:38.018Z,1.00
2023-04-14T14:32:05.693Z,1.07
2023-04-14T14:34:33.586Z,1.73
2023-04-14T14:37:01.227Z,0.63
2023-04-14T14:39:30.769Z,0.30
2023-04-14T14:41:58.344Z,0.77
2023-04-14T14:44:27.434Z,0.60
2023-04-14T14:46:55.240Z,1.13
2023-04-14T14:49:22.933Z,0.63
2023-04-14T14:51:50.692Z,1.10
2023-04-14T14:54:18.315Z,0.53
2023-04-14T14:56:45.879Z,1.33
2023-04-14T14:59:13.761Z,0.67
2023-04-14T15:01:42.891Z,0.40
2023-04-14T15:04:10.579Z,1.07
2023-04-14T15:06:38.557Z,0.40
2023-04-14T15:09:06.320Z,0.60
2023-04-14T15:11:34.370Z,0.53
2023-04-14T15:14:02.167Z,0.30
2023-04-14T15:16:29.996Z,1.70
2023-04-14T15:18:59.097Z,0.40
2023-04-14T15:21:26.690Z,0.40
2023-04-14T15:23:54.250Z,0.80
2023-04-14T15:26:22.670Z,1.17
2023-04-14T15:28:50.318Z,1.53
2023-04-14T15:31:18.023Z,1.87
2023-04-14T15:33:46.220Z,1.33
2023-04-14T15:36:15.790Z,1.90
2023-04-14T15:38:43.336Z,1.00
2023-04-14T15:41:11.418Z,1.63
2023-04-14T15:43:39.040Z,1.13
2023-04-14T15:46:06.993Z,0.83
2023-04-14T15:48:34.600Z,0.67
2023-04-14T15:51:02.463Z,0.60
2023-04-14T15:53:31.418Z,0.90
2023-04-14T15:55:59.090Z,1.43
2023-04-14T15:58:27.314Z,0.60
2023-04-14T16:00:55.024Z,0.80
2023-04-14T16:03:22.676Z,0.47
2023-04-14T16:05:50.617Z,1.33
2023-04-14T16:08:19.084Z,1.23
2023-04-14T16:10:48.828Z,0.83
2023-04-14T16:13:16.849Z,0.67
2023-04-14T16:15:44.687Z,0.47
2023-04-14T16:18:12.267Z,0.80
2023-04-14T16:20:40.157Z,1.70
2023-04-14T16:23:07.745Z,1.27
2023-04-14T16:25:35.681Z,2.73
2023-04-14T16:28:04.604Z,0.70
2023-04-14T16:30:32.682Z,2.67
2023-04-14T16:33:00.305Z,0.90
2023-04-14T16:35:27.885Z,0.70
2023-04-14T16:37:55.443Z,1.00
2023-04-14T16:40:23.305Z,0.70
2023-04-14T16:42:51.078Z,1.43
2023-04-14T16:45:20.782Z,0.80
2023-04-14T16:47:48.521Z,0.90
2023-04-14T16:50:16.256Z,0.60
2023-04-14T16:52:43.985Z,4.70
2023-04-14T16:55:12.482Z,2.77
2023-04-14T16:57:40.164Z,1.57
2023-04-14T17:00:12.003Z,1.27
2023-04-14T17:02:41.982Z,2.93
2023-04-14T17:05:11.165Z,2.47
2023-04-14T17:07:39.076Z,1.07
2023-04-14T17:10:07.360Z,1.00
2023-04-14T17:12:35.485Z,1.40
2023-04-14T17:15:04.424Z,1.00
2023-04-14T17:17:33.913Z,1.27
2023-04-14T17:20:04.030Z,0.60
2023-04-14T17:22:31.849Z,0.67
2023-04-14T17:24:59.760Z,1.00
2023-04-14T17:27:27.374Z,0.97
2023-04-14T17:29:54.921Z,2.33
2023-04-14T17:32:22.901Z,1.30
2023-04-14T17:34:50.877Z,2.60
2023-04-14T17:37:20.106Z,2.00
2023-04-14T17:39:49.131Z,1.57
2023-04-14T17:42:17.033Z,1.07
2023-04-14T17:44:44.595Z,1.20
2023-04-14T17:47:15.574Z,1.00
2023-04-14T17:49:43.791Z,1.47
2023-04-14T17:52:22.303Z,2.40
2023-04-14T17:54:51.494Z,1.83
2023-04-14T17:57:19.766Z,2.10
2023-04-14T17:59:47.386Z,0.97
2023-04-14T18:02:16.090Z,0.97
2023-04-14T18:04:43.665Z,1.87
2023-04-14T18:07:11.344Z,2.27
2023-04-14T18:09:40.686Z,0.90
2023-04-14T18:12:08.383Z,1.27
2023-04-14T18:14:35.941Z,1.80
2023-04-14T18:17:05.078Z,1.20
2023-04-14T18:19:33.338Z,1.27
2023-04-14T18:22:03.119Z,1.07
2023-04-14T18:28:02.670Z,1.87
2023-04-14T18:29:52.115Z,1.23
2023-04-14T18:32:19.778Z,1.30
2023-04-14T18:34:47.417Z,3.30
2023-04-14T18:37:15.848Z,1.47
2023-04-14T18:39:43.553Z,1.20
2023-04-14T18:42:12.662Z,1.93
2023-04-14T18:44:40.257Z,1.60
2023-04-14T18:47:09.331Z,1.13
2023-04-14T18:49:36.906Z,1.97
2023-04-14T18:52:05.776Z,1.60
2023-04-14T18:54:33.708Z,4.20
2023-04-14T18:57:01.851Z,1.13
2023-04-14T18:59:30.763Z,2.30
2023-04-14T19:01:59.577Z,1.40
2023-04-14T19:04:27.383Z,2.50
2023-04-14T19:06:55.258Z,1.30
2023-04-14T19:09:23.202Z,1.27
2023-04-14T19:11:51.055Z,1.93
2023-04-14T19:14:18.608Z,1.27
2023-04-14T19:16:47.771Z,1.77
2023-04-14T19:19:15.616Z,1.70
2023-04-14T19:21:43.649Z,1.87
2023-04-14T19:24:11.263Z,2.67
2023-04-14T19:26:40.875Z,2.10
2023-04-14T19:29:08.469Z,1.47
2023-04-14T19:31:36.356Z,3.20
2023-04-14T19:34:05.411Z,2.37
2023-04-14T19:36:34.388Z,3.07
2023-04-14T19:39:02.345Z,2.10
2023-04-14T19:41:30.147Z,1.20
2023-04-14T19:43:57.914Z,1.30
2023-04-14T19:46:26.220Z,1.33
2023-04-14T19:48:54.480Z,1.10
2023-04-14T19:51:23.536Z,1.43
2023-04-14T19:53:51.628Z,1.53
2023-04-14T19:56:19.896Z,1.37
2023-04-14T19:58:47.452Z,2.07
2023-04-14T20:01:16.212Z,1.53
2023-04-14T20:04:05.692Z,1.57
2023-04-14T20:06:33.907Z,2.10
2023-04-14T20:09:02.020Z,1.33
2023-04-14T20:11:30.826Z,1.30
2023-04-14T20:13:58.397Z,1.37
2023-04-14T20:16:26.401Z,1.00
2023-04-14T20:18:54.120Z,2.20
2023-04-14T20:21:21.836Z,1.10
2023-04-14T20:23:50.881Z,2.17
2023-04-14T20:26:18.575Z,1.63
2023-04-14T20:28:47.492Z,1.93
2023-04-14T20:31:15.763Z,0.93
2023-04-14T20:33:44.216Z,1.10
2023-04-14T20:36:11.954Z,1.70
2023-04-14T20:38:39.538Z,1.30
2023-04-14T20:41:09.082Z,1.30
2023-04-14T20:43:36.741Z,1.40
2023-04-14T20:46:05.373Z,1.07
2023-04-14T20:48:33.016Z,1.23
2023-04-14T20:51:01.364Z,1.20
2023-04-14T20:53:29.921Z,1.20
2023-04-14T20:55:57.578Z,1.13
2023-04-14T20:58:26.615Z,1.33
2023-04-14T21:00:54.194Z,2.40
2023-04-14T21:03:23.713Z,2.07
2023-04-14T21:05:51.660Z,1.67
2023-04-14T21:08:19.427Z,1.00
2023-04-14T21:11:15.241Z,1.30
2023-04-14T21:15:29.496Z,1.10
2023-04-14T21:16:24.113Z,0.80
2023-04-14T21:18:51.751Z,1.17
2023-04-14T21:21:19.550Z,1.07
2023-04-14T21:23:47.158Z,1.20
2023-04-14T21:26:14.756Z,1.03
2023-04-14T21:28:43.652Z,1.93
2023-04-14T21:31:11.493Z,1.03
2023-04-14T21:33:41.546Z,0.80
2023-04-14T21:36:10.753Z,3.07
2023-04-14T21:38:39.223Z,0.80
2023-04-14T21:41:07.776Z,0.70
2023-04-14T21:43:36.189Z,1.23
2023-04-14T21:46:05.777Z,1.20
2023-04-14T21:48:33.539Z,1.20
2023-04-14T21:51:01.383Z,0.90
2023-04-14T21:53:29.343Z,1.90
2023-04-14T21:56:00.440Z,1.10
2023-04-14T21:58:37.410Z,0.90
2023-04-14T22:01:07.003Z,1.57
2023-04-14T22:03:37.378Z,1.57
2023-04-14T22:06:05.887Z,1.20
2023-04-14T22:08:33.502Z,1.90
2023-04-14T22:11:01.392Z,1.40
2023-04-14T22:13:28.958Z,1.40
2023-04-14T22:15:56.545Z,1.20
2023-04-14T22:18:25.874Z,1.70
2023-04-14T22:20:53.435Z,1.20
2023-04-14T22:23:21.696Z,1.50
2023-04-14T22:25:49.277Z,2.03
2023-04-14T22:28:16.957Z,1.40
2023-04-14T22:30:44.746Z,1.67
2023-04-14T22:33:12.364Z,1.30
2023-04-14T22:35:41.536Z,2.20
2023-04-14T22:38:09.113Z,1.40
2023-04-14T22:40:36.844Z,2.00
2023-04-14T22:43:08.921Z,0.90
2023-04-14T22:45:37.637Z,2.60
2023-04-14T22:48:06.259Z,2.23
2023-04-14T22:50:34.008Z,1.37
2023-04-14T22:53:02.920Z,1.73
2023-04-14T22:55:30.692Z,1.90
2023-04-14T22:57:58.596Z,2.30
2023-04-14T23:00:26.601Z,1.20
2023-04-14T23:02:55.913Z,2.23
2023-04-14T23:05:23.605Z,1.97
2023-04-14T23:07:51.530Z,2.10
2023-04-14T23:10:20.899Z,2.00
2023-04-14T23:12:48.685Z,1.90
2023-04-14T23:15:16.288Z,1.40
2023-04-14T23:17:43.966Z,2.07
2023-04-14T23:20:12.729Z,1.00
2023-04-14T23:22:40.660Z,1.53
2023-04-14T23:25:09.327Z,1.73
2023-04-14T23:27:38.259Z,1.47
2023-04-14T23:30:07.222Z,1.40
2023-04-14T23:32:34.805Z,3.50
2023-04-14T23:35:03.371Z,1.50
2023-04-14T23:37:31.241Z,1.53
2023-04-14T23:39:58.811Z,1.53
2023-04-14T23:42:27.022Z,1.90
2023-04-14T23:44:57.096Z,1.60
2023-04-14T23:47:24.966Z,1.40
2023-04-14T23:49:53.299Z,3.63
2023-04-14T23:52:21.217Z,1.87
2023-04-14T23:54:49.008Z,2.13
2023-04-14T23:57:16.860Z,1.50
2023-04-14T23:59:44.654Z,1.53
